Terminal Aerodrome Forecast
Issued by NWS

Current Version | Previous Version | Graphics & Text | Print | Product List | Glossary On
Versions: 1 2 3 4 5 6 7 8 9 10 11 12 13 14 15 16 17 18 19 20 21 22 23
000
FTUS41 KPBZ 232320
TAFMGW
TAF
KMGW 232320Z 2400/2424 36010KT P6SM -RA OVC015
     FM240200 36008KT 6SM -RA BR OVC008
     FM240600 32006KT P6SM OVC008=

USA.gov is the U.S. government's official web portal to all federal, state and local government web resources and services.